createdAt,value
2022-09-12T05:03:44.499Z,74.50
2022-09-12T05:08:48.456Z,74.50
2022-09-12T05:13:52.018Z,74.60
2022-09-12T05:18:58.409Z,74.90
2022-09-12T05:24:02.165Z,75.40
2022-09-12T05:29:07.161Z,75.40
2022-09-12T05:34:12.724Z,75.70
2022-09-12T05:39:16.748Z,76.00
2022-09-12T05:44:20.250Z,76.20
2022-09-12T05:49:25.198Z,76.20
2022-09-12T05:54:31.624Z,76.30
2022-09-12T05:59:35.405Z,76.40
2022-09-12T06:04:40.975Z,76.50
2022-09-12T06:09:44.469Z,76.80
2022-09-12T06:14:47.976Z,76.90
2022-09-12T06:19:53.352Z,76.90
2022-09-12T06:24:58.080Z,77.00
2022-09-12T06:30:01.715Z,77.50
2022-09-12T06:35:07.084Z,77.50
2022-09-12T06:40:12.461Z,77.40
2022-09-12T06:45:16.585Z,77.10
2022-09-12T06:50:21.981Z,76.80
2022-09-12T06:55:27.711Z,76.50
2022-09-12T07:00:32.257Z,76.20
2022-09-12T07:05:37.420Z,76.20
2022-09-12T07:10:40.979Z,76.20
2022-09-12T07:15:44.500Z,76.00
2022-09-12T07:20:49.445Z,75.60
2022-09-12T07:25:57.171Z,75.50
2022-09-12T07:31:07.124Z,75.40
2022-09-12T07:36:13.914Z,75.30
2022-09-12T07:41:21.784Z,75.10
2022-09-12T07:46:26.594Z,74.80
2022-09-12T07:51:32.501Z,74.60
2022-09-12T07:56:39.076Z,74.40
2022-09-12T08:01:43.218Z,74.30
2022-09-12T08:06:48.170Z,73.90
2022-09-12T08:11:51.768Z,73.50
2022-09-12T08:16:55.330Z,73.20
2022-09-12T08:22:00.242Z,72.90
2022-09-12T08:27:03.830Z,72.60
2022-09-12T08:32:07.734Z,72.20
2022-09-12T08:37:12.605Z,71.60
2022-09-12T08:42:25.388Z,71.10
2022-09-12T08:47:32.665Z,70.50
2022-09-12T08:52:44.533Z,69.50
2022-09-12T08:57:48.067Z,68.10
2022-09-12T09:03:10.142Z,67.20
2022-09-12T09:08:35.593Z,65.90
2022-09-12T09:14:07.047Z,64.70
2022-09-12T09:19:17.415Z,63.40
2022-09-12T09:24:28.281Z,62.10
2022-09-12T09:29:37.998Z,60.90
2022-09-12T09:34:41.762Z,59.80
2022-09-12T09:40:00.671Z,58.70
2022-09-12T09:45:13.017Z,58.10
2022-09-12T09:50:18.256Z,57.40
2022-09-12T09:55:27.547Z,56.60
2022-09-12T10:00:32.962Z,56.50
2022-09-12T10:05:45.939Z,55.90
2022-09-12T10:11:01.838Z,55.30
2022-09-12T10:16:08.444Z,54.20
2022-09-12T10:21:34.782Z,53.80
2022-09-12T10:26:41.934Z,53.20
2022-09-12T10:31:52.232Z,53.00
2022-09-12T10:37:01.975Z,52.30
2022-09-12T10:42:07.290Z,51.70
2022-09-12T10:47:22.644Z,50.80
2022-09-12T10:52:28.492Z,49.80
2022-09-12T10:57:55.745Z,49.50
2022-09-12T11:03:10.381Z,48.90
2022-09-12T11:08:31.118Z,48.80
2022-09-12T11:13:54.895Z,47.90
2022-09-12T11:19:07.483Z,47.60
2022-09-12T11:24:27.535Z,47.90
2022-09-12T11:29:48.885Z,47.70
2022-09-12T11:35:03.326Z,46.70
2022-09-12T11:40:20.200Z,47.00
2022-09-12T11:45:30.511Z,46.60
2022-09-12T11:50:34.556Z,45.70
2022-09-12T11:55:54.612Z,45.30
2022-09-12T12:01:08.082Z,44.80
2022-09-12T12:06:13.174Z,44.40
2022-09-12T12:11:25.787Z,44.30
2022-09-12T12:16:34.463Z,43.90
2022-09-12T12:21:41.157Z,43.50
2022-09-12T12:27:01.339Z,43.00
2022-09-12T12:32:24.214Z,42.40
2022-09-12T12:37:53.244Z,41.80
2022-09-12T12:43:03.197Z,41.60
2022-09-12T12:48:16.181Z,42.20
2022-09-12T12:53:24.255Z,42.20
2022-09-12T12:58:33.055Z,42.40
2022-09-12T13:03:40.493Z,42.20
2022-09-12T13:08:56.587Z,41.70
2022-09-12T13:14:02.162Z,41.70
2022-09-12T13:19:17.994Z,42.30
2022-09-12T13:24:24.422Z,42.40
2022-09-12T13:29:29.144Z,41.70
2022-09-12T13:34:36.675Z,41.40
2022-09-12T13:39:47.845Z,41.00
2022-09-12T13:44:56.656Z,40.80
2022-09-12T13:50:03.196Z,40.80
2022-09-12T13:55:09.641Z,40.80
2022-09-12T14:00:20.060Z,40.70
2022-09-12T14:05:27.093Z,41.00
2022-09-12T14:10:35.518Z,41.20
2022-09-12T14:15:39.734Z,41.60
2022-09-12T14:20:44.944Z,42.20
2022-09-12T14:25:49.348Z,42.50
2022-09-12T14:31:06.503Z,42.70
2022-09-12T14:36:18.457Z,42.80
2022-09-12T14:41:28.820Z,42.90
2022-09-12T14:46:36.080Z,43.00
2022-09-12T14:51:51.203Z,42.80
2022-09-12T14:56:56.849Z,42.80
2022-09-12T15:02:28.073Z,43.10
2022-09-12T15:07:35.968Z,43.40
2022-09-12T15:12:39.461Z,43.70
2022-09-12T15:17:43.482Z,43.90
2022-09-12T15:22:48.409Z,44.10
2022-09-12T15:27:53.783Z,44.30
2022-09-12T15:33:00.124Z,44.60
2022-09-12T15:38:05.139Z,44.80
2022-09-12T15:43:09.004Z,45.00
2022-09-12T15:48:13.760Z,45.20
2022-09-12T15:53:19.069Z,45.50
2022-09-12T15:58:22.628Z,45.70
2022-09-12T16:03:27.585Z,46.00
2022-09-12T16:08:33.227Z,46.30
2022-09-12T16:13:36.789Z,46.70
2022-09-12T16:18:41.093Z,47.00
2022-09-12T16:23:46.595Z,47.20
2022-09-12T16:28:56.590Z,47.40
2022-09-12T16:34:00.165Z,47.70
2022-09-12T16:39:05.494Z,48.00
2022-09-12T16:44:10.201Z,48.80
2022-09-12T16:49:13.933Z,49.50
2022-09-12T16:54:19.084Z,50.10
2022-09-12T16:59:22.720Z,50.70
2022-09-12T17:04:26.258Z,51.10
2022-09-12T17:09:31.170Z,51.50
2022-09-12T17:14:34.700Z,51.90
2022-09-12T17:19:38.271Z,52.20
2022-09-12T17:24:43.139Z,52.70
2022-09-12T17:29:46.713Z,53.20
2022-09-12T17:34:50.222Z,53.60
2022-09-12T17:39:55.254Z,54.10
2022-09-12T17:44:59.357Z,54.60
2022-09-12T17:50:27.721Z,55.00
2022-09-12T17:55:28.215Z,55.10
2022-09-12T18:00:50.748Z,55.20
2022-09-12T18:05:55.970Z,55.00
2022-09-12T18:11:07.108Z,54.80
2022-09-12T18:16:13.233Z,54.70
2022-09-12T18:21:16.801Z,55.00
2022-09-12T18:26:22.414Z,55.20
2022-09-12T18:31:28.840Z,55.20
2022-09-12T18:36:32.769Z,55.20
2022-09-12T18:41:38.069Z,55.50
2022-09-12T18:46:41.696Z,55.90
2022-09-12T18:51:45.405Z,56.50
2022-09-12T18:56:50.408Z,56.80
2022-09-12T19:01:54.028Z,57.10
2022-09-12T19:06:57.861Z,57.20
2022-09-12T19:12:02.950Z,57.50
2022-09-12T19:17:06.903Z,57.80
2022-09-12T19:22:10.520Z,58.10
2022-09-12T19:27:16.126Z,58.30
2022-09-12T19:32:19.684Z,58.60
2022-09-12T19:37:23.187Z,59.00
2022-09-12T19:42:28.013Z,59.30
2022-09-12T19:47:31.624Z,59.70
2022-09-12T19:52:35.123Z,60.50
2022-09-12T19:57:40.003Z,60.50
2022-09-12T20:02:43.598Z,61.10
2022-09-12T20:07:47.374Z,61.40
2022-09-12T20:12:52.280Z,61.70
2022-09-12T20:17:56.532Z,61.90
2022-09-12T20:22:59.843Z,62.30
2022-09-12T20:28:04.820Z,62.30
2022-09-12T20:33:08.364Z,62.30
2022-09-12T20:38:11.887Z,62.70
2022-09-12T20:43:16.741Z,62.90
2022-09-12T20:48:20.238Z,62.80
2022-09-12T20:53:24.331Z,62.40
2022-09-12T20:58:29.180Z,62.10
2022-09-12T21:03:32.895Z,62.00
2022-09-12T21:08:37.741Z,62.00
2022-09-12T21:13:42.969Z,62.00
2022-09-12T21:18:47.059Z,61.90
2022-09-12T21:23:50.982Z,61.70
2022-09-12T21:28:56.070Z,61.50
2022-09-12T21:33:59.725Z,61.80
2022-09-12T21:39:03.272Z,62.30
2022-09-12T21:44:08.499Z,62.70
2022-09-12T21:49:12.003Z,63.20
2022-09-12T21:54:15.904Z,63.60
2022-09-12T21:59:21.302Z,63.80
2022-09-12T22:04:25.169Z,63.70
2022-09-12T22:09:28.762Z,63.50
2022-09-12T22:14:33.893Z,63.20
2022-09-12T22:19:38.164Z,63.00
2022-09-12T22:24:41.503Z,62.80
2022-09-12T22:29:46.651Z,62.60
